Time;durP1;ratioP1;P1;durP2;ratioP2;P2;SDS_P1;SDS_P2;PMS_P1;PMS_P2;Temp;Humidity;BMP_temperature;BMP_pressure;BME280_temperature;BME280_humidity;BME280_pressure;Samples;Min_cycle;Max_cycle;Signal;HPM_P1;HPM_P2
2023/06/27 00:00:31;;;;;;;5.55;2.08;;;;;;;22.58;40.77;101931.50;5041119;28;20061;-63
2023/06/27 00:02:59;;;;;;;4.70;1.60;;;;;;;22.56;40.80;101929.03;5044669;28;20042;-62
2023/06/27 00:05:29;;;;;;;3.85;1.90;;;;;;;22.56;40.90;101940.00;5039494;28;20079;-63
2023/06/27 00:07:57;;;;;;;4.55;1.75;;;;;;;22.55;40.95;101937.53;5041145;28;20061;-62
2023/06/27 00:10:24;;;;;;;7.53;2.10;;;;;;;22.54;40.84;101927.66;5039102;28;20072;-62
2023/06/27 00:12:53;;;;;;;4.45;1.80;;;;;;;22.51;40.96;101934.56;5035157;28;20079;-62
2023/06/27 00:15:21;;;;;;;5.05;1.98;;;;;;;22.51;41.10;101928.25;5043783;28;20099;-62
2023/06/27 00:17:51;;;;;;;4.40;1.75;;;;;;;22.49;41.04;101928.53;5038089;28;20072;-62
2023/06/27 00:20:19;;;;;;;5.07;1.77;;;;;;;22.49;41.12;101927.69;5036279;28;20057;-62
2023/06/27 00:22:48;;;;;;;4.35;1.80;;;;;;;22.47;41.21;101930.72;5041332;28;20038;-63
2023/06/27 00:25:16;;;;;;;5.90;2.30;;;;;;;22.47;41.12;101927.97;5041581;28;20049;-62
2023/06/27 00:27:44;;;;;;;3.78;1.65;;;;;;;22.46;41.11;101922.78;5042569;28;20060;-62
2023/06/27 00:30:13;;;;;;;3.15;1.60;;;;;;;22.45;41.24;101929.34;5042097;28;20467;-62
2023/06/27 00:32:41;;;;;;;4.43;1.73;;;;;;;22.44;41.30;101924.97;5040927;28;20060;-62
2023/06/27 00:35:09;;;;;;;5.18;1.83;;;;;;;22.43;41.12;101929.63;5037405;28;20057;-62
2023/06/27 00:37:37;;;;;;;4.28;2.05;;;;;;;22.40;41.39;101920.03;5034714;28;20045;-62
2023/06/27 00:40:09;;;;;;;3.90;1.95;;;;;;;22.39;41.44;101923.06;5042123;28;20045;-62
2023/06/27 00:42:37;;;;;;;2.08;1.50;;;;;;;22.40;41.22;101919.22;5033036;28;20042;-62
2023/06/27 00:45:07;;;;;;;8.25;2.30;;;;;;;22.37;41.51;101917.84;5041666;28;20045;-62
2023/06/27 00:47:35;;;;;;;5.93;2.25;;;;;;;22.36;41.45;101918.94;5040703;28;20042;-62
2023/06/27 00:50:03;;;;;;;3.72;1.90;;;;;;;22.34;41.53;101926.63;5038738;28;20058;-63
2023/06/27 00:52:30;;;;;;;5.63;1.95;;;;;;;22.33;41.57;101935.09;5040819;28;20041;-62
2023/06/27 00:54:59;;;;;;;6.95;2.25;;;;;;;22.31;41.58;101929.91;5044090;28;20052;-62
2023/06/27 00:57:29;;;;;;;6.80;2.42;;;;;;;22.31;41.54;101923.59;5039671;28;20046;-62
2023/06/27 00:59:57;;;;;;;4.20;1.73;;;;;;;22.29;41.66;101918.41;5043607;28;20049;-62
2023/06/27 01:02:25;;;;;;;4.63;2.58;;;;;;;22.28;41.72;101926.88;5043432;28;20041;-62
2023/06/27 01:04:54;;;;;;;4.20;1.83;;;;;;;22.26;41.48;101921.69;5044908;28;20045;-63
2023/06/27 01:07:27;;;;;;;4.43;1.88;;;;;;;22.25;41.76;101925.53;5031934;28;20049;-63
2023/06/27 01:10:01;;;;;;;5.45;2.40;;;;;;;22.23;41.81;101921.41;5031716;28;20054;-62
2023/06/27 01:12:39;;;;;;;6.25;2.22;;;;;;;22.22;41.96;101930.72;5042926;28;20064;-62
2023/06/27 01:15:08;;;;;;;5.10;2.10;;;;;;;22.20;41.98;101930.19;5040024;28;20053;-62
2023/06/27 01:17:37;;;;;;;5.55;2.28;;;;;;;22.18;41.97;101935.94;5036980;28;20045;-62
2023/06/27 01:20:09;;;;;;;5.35;2.22;;;;;;;22.15;42.24;101922.78;5046244;28;20132;-62
2023/06/27 01:22:41;;;;;;;6.20;1.90;;;;;;;22.16;42.15;101926.34;5031983;28;20195;-62
2023/06/27 01:25:12;;;;;;;7.00;2.33;;;;;;;22.14;41.95;101934.00;5044728;28;20053;-62
2023/06/27 01:27:40;;;;;;;6.10;1.60;;;;;;;22.12;42.06;101936.19;5040183;28;20068;-62
2023/06/27 01:30:09;;;;;;;4.35;2.17;;;;;;;22.11;42.19;101929.91;5044596;28;20050;-62
2023/06/27 01:32:41;;;;;;;4.30;1.83;;;;;;;22.07;42.15;101924.13;5043067;28;20038;-62
2023/06/27 01:35:16;;;;;;;5.55;2.00;;;;;;;22.06;42.13;101919.75;5044647;28;20060;-62
2023/06/27 01:37:50;;;;;;;9.57;2.47;;;;;;;22.05;42.17;101925.50;5043013;28;20103;-62
2023/06/27 01:40:21;;;;;;;7.50;2.13;;;;;;;22.03;42.12;101917.56;5045544;28;20049;-62
2023/06/27 01:42:54;;;;;;;6.07;2.30;;;;;;;22.02;42.06;101928.78;5045823;28;20076;-63
2023/06/27 01:45:24;;;;;;;5.22;1.92;;;;;;;22.01;42.27;101932.59;5042618;28;20045;-63
2023/06/27 01:47:54;;;;;;;7.95;2.58;;;;;;;21.99;42.34;101921.91;5041640;28;20064;-62
2023/06/27 01:50:23;;;;;;;6.88;2.30;;;;;;;21.97;42.27;101935.06;5038549;28;20053;-63
2023/06/27 01:52:50;;;;;;;5.05;2.53;;;;;;;21.97;42.42;101923.28;5046368;28;20049;-62
2023/06/27 01:55:20;;;;;;;6.07;1.75;;;;;;;21.96;42.24;101918.91;5046247;28;20053;-62
2023/06/27 01:57:49;;;;;;;4.95;1.83;;;;;;;21.94;42.28;101930.13;5041063;28;20061;-63
2023/06/27 02:00:18;;;;;;;6.70;2.60;;;;;;;21.92;42.34;101921.34;5041215;28;20046;-63
2023/06/27 02:02:45;;;;;;;6.35;2.60;;;;;;;21.91;42.47;101921.63;5043770;28;20045;-63
2023/06/27 02:05:13;;;;;;;4.60;2.03;;;;;;;21.91;42.47;101916.16;5039340;28;20049;-63
2023/06/27 02:07:41;;;;;;;5.40;2.42;;;;;;;21.89;42.54;101918.34;5037026;28;20061;-63
2023/06/27 02:10:10;;;;;;;5.20;1.77;;;;;;;21.88;42.66;101913.97;5044362;28;20057;-63
2023/06/27 02:12:39;;;;;;;8.30;1.90;;;;;;;21.87;42.62;101918.59;5042958;28;20060;-63
2023/06/27 02:15:08;;;;;;;7.22;2.15;;;;;;;21.87;42.83;101918.59;5041730;28;20115;-63
2023/06/27 02:17:36;;;;;;;6.07;2.38;;;;;;;21.86;42.65;101919.69;5039782;28;20045;-63
2023/06/27 02:20:05;;;;;;;5.28;2.10;;;;;;;21.85;42.90;101906.28;5040994;28;20129;-63
2023/06/27 02:22:32;;;;;;;7.25;2.00;;;;;;;21.83;42.97;101912.03;5041649;28;20049;-63
2023/06/27 02:25:00;;;;;;;8.57;2.85;;;;;;;21.83;42.75;101916.69;5043760;28;20049;-63
2023/06/27 02:27:28;;;;;;;7.63;2.05;;;;;;;21.82;42.90;101913.13;5038665;28;20057;-63
2023/06/27 02:29:57;;;;;;;4.50;2.00;;;;;;;21.80;42.83;101909.03;5038778;28;20050;-63
2023/06/27 02:32:25;;;;;;;6.68;2.33;;;;;;;21.71;43.05;101901.34;5043659;28;20076;-63
2023/06/27 02:34:53;;;;;;;7.43;2.30;;;;;;;21.73;43.11;101898.34;5043880;28;20077;-63
2023/06/27 02:37:20;;;;;;;7.75;2.38;;;;;;;21.75;42.88;101901.63;5041851;28;20525;-62
2023/06/27 02:39:50;;;;;;;5.35;2.45;;;;;;;21.74;43.20;101914.47;5040513;28;20049;-63
2023/06/27 02:42:18;;;;;;;8.05;2.70;;;;;;;21.74;43.23;101905.44;5042859;28;20094;-61
2023/06/27 02:44:45;;;;;;;10.55;3.25;;;;;;;21.71;43.45;101909.56;5042694;28;20045;-62
2023/06/27 02:47:15;;;;;;;7.47;2.33;;;;;;;21.70;43.61;101907.09;5044131;28;20049;-62
2023/06/27 02:49:43;;;;;;;5.45;2.47;;;;;;;21.69;43.32;101899.97;5044595;28;20061;-62
2023/06/27 02:52:10;;;;;;;5.85;2.20;;;;;;;21.68;43.53;101901.88;5040584;28;20050;-63
2023/06/27 02:54:38;;;;;;;6.63;2.28;;;;;;;21.68;43.36;101901.88;5044343;28;20060;-62
2023/06/27 02:57:07;;;;;;;4.80;2.08;;;;;;;21.64;43.45;101898.03;4999429;28;1094778;-62
2023/06/27 02:59:35;;;;;;;5.85;1.90;;;;;;;21.66;43.39;101897.78;5044590;28;20056;-62
2023/06/27 03:02:02;;;;;;;4.35;2.00;;;;;;;21.63;43.57;101898.31;5039984;28;20061;-62
2023/06/27 03:04:32;;;;;;;7.43;2.40;;;;;;;21.63;43.58;101901.03;5042122;28;20084;-63
2023/06/27 03:06:59;;;;;;;6.65;2.70;;;;;;;21.61;43.56;101908.69;5042754;28;20063;-63
2023/06/27 03:09:27;;;;;;;7.93;2.22;;;;;;;21.59;43.53;101908.97;5033517;28;20069;-63
2023/06/27 03:11:55;;;;;;;6.18;2.25;;;;;;;21.58;43.52;101910.06;5040121;28;20073;-63
2023/06/27 03:14:23;;;;;;;7.50;2.35;;;;;;;21.57;43.78;101904.88;5035805;28;20037;-63
2023/06/27 03:16:51;;;;;;;8.27;2.10;;;;;;;21.55;43.77;101905.13;5043496;28;20083;-63
2023/06/27 03:19:18;;;;;;;6.60;2.60;;;;;;;21.55;43.84;101904.31;5033997;28;20167;-63
2023/06/27 03:22:02;;;;;;;6.90;2.60;;;;;;;21.54;43.98;101910.88;5037928;28;20054;-63
2023/06/27 03:24:30;;;;;;;6.85;2.13;;;;;;;21.53;43.90;101907.31;5030807;28;20045;-63
2023/06/27 03:26:57;;;;;;;4.15;1.90;;;;;;;21.51;43.88;101916.88;5042754;28;20136;-63
2023/06/27 03:29:25;;;;;;;13.15;2.35;;;;;;;21.50;44.00;101905.13;5042260;28;20100;-62
2023/06/27 03:31:57;;;;;;;9.15;2.88;;;;;;;21.49;43.99;101914.41;5037815;28;20556;-63
2023/06/27 03:34:25;;;;;;;5.75;2.25;;;;;;;21.48;43.98;101906.47;5040636;28;20045;-63
2023/06/27 03:36:53;;;;;;;8.70;2.17;;;;;;;21.47;44.01;101904.84;5035900;28;20052;-62
2023/06/27 03:39:22;;;;;;;6.07;2.08;;;;;;;21.45;44.05;101913.31;5036290;28;20128;-62
2023/06/27 03:41:50;;;;;;;7.82;2.50;;;;;;;21.43;44.12;101915.50;5042897;28;20053;-62
2023/06/27 03:44:17;;;;;;;6.00;2.35;;;;;;;21.43;43.99;101918.22;5043011;28;20506;-62
2023/06/27 03:46:45;;;;;;;6.50;2.75;;;;;;;21.42;44.21;101903.72;5044238;28;20045;-62
2023/06/27 03:49:13;;;;;;;4.38;2.03;;;;;;;21.41;44.27;101914.94;5041570;28;20115;-62
2023/06/27 03:51:41;;;;;;;7.15;2.67;;;;;;;21.40;44.33;101914.13;5042898;28;20053;-62
2023/06/27 03:54:09;;;;;;;10.23;2.50;;;;;;;21.38;44.31;101921.75;5043501;28;20473;-62
2023/06/27 03:56:38;;;;;;;6.25;2.30;;;;;;;21.38;44.37;101912.72;5035025;28;20093;-63
2023/06/27 03:59:06;;;;;;;6.72;2.78;;;;;;;21.37;44.34;101914.66;5040682;28;20045;-62
2023/06/27 04:01:34;;;;;;;8.70;3.08;;;;;;;21.36;44.37;101915.75;5036623;28;20049;-63
2023/06/27 04:04:02;;;;;;;8.35;3.05;;;;;;;21.35;44.47;101918.75;5043278;28;20462;-63
2023/06/27 04:06:30;;;;;;;7.47;2.45;;;;;;;21.34;44.48;101923.38;5029815;28;20049;-63
2023/06/27 04:08:58;;;;;;;7.07;2.22;;;;;;;21.31;44.52;101921.19;5033729;28;20096;-62
2023/06/27 04:11:25;;;;;;;6.07;2.40;;;;;;;21.31;44.64;101921.19;5044352;28;20495;-63
2023/06/27 04:13:56;;;;;;;10.15;2.30;;;;;;;21.30;44.55;101925.00;5037492;28;20042;-63
2023/06/27 04:16:24;;;;;;;6.40;2.58;;;;;;;21.29;44.84;101922.53;5044720;28;20041;-63
2023/06/27 04:18:52;;;;;;;4.70;2.00;;;;;;;21.28;45.05;101913.53;5040367;28;20081;-63
2023/06/27 04:21:20;;;;;;;8.02;2.63;;;;;;;21.25;44.86;101919.53;5043226;28;20049;-63
2023/06/27 04:23:47;;;;;;;6.30;2.33;;;;;;;21.24;45.04;101915.16;5043252;28;20045;-63
2023/06/27 04:26:17;;;;;;;4.50;2.15;;;;;;;21.24;44.94;101917.06;5037401;28;20112;-63
2023/06/27 04:28:47;;;;;;;5.43;2.22;;;;;;;21.23;44.93;101923.63;5035994;28;20049;-62
2023/06/27 04:31:16;;;;;;;6.32;2.67;;;;;;;21.22;45.00;101921.97;5042135;28;20045;-62
2023/06/27 04:33:44;;;;;;;4.60;2.00;;;;;;;21.21;45.10;101923.84;5033457;28;20513;-63
2023/06/27 04:36:15;;;;;;;5.95;2.38;;;;;;;21.20;44.90;101916.72;5031576;28;20069;-62
2023/06/27 04:38:43;;;;;;;8.15;2.45;;;;;;;21.20;44.93;101924.13;5041693;28;20516;-62
2023/06/27 04:41:12;;;;;;;7.25;2.75;;;;;;;21.15;45.33;101918.63;5043435;28;20111;-63
2023/06/27 04:43:40;;;;;;;7.30;2.50;;;;;;;21.17;44.95;101928.19;5042883;28;20059;-61
2023/06/27 04:46:08;;;;;;;5.88;2.10;;;;;;;21.16;45.18;101928.47;5043988;28;20053;-62
2023/06/27 04:48:37;;;;;;;4.85;2.10;;;;;;;21.14;45.17;101926.00;5037951;28;20046;-62
2023/06/27 04:51:05;;;;;;;8.32;2.70;;;;;;;21.13;45.28;101936.13;5043677;28;20045;-62
2023/06/27 04:53:33;;;;;;;6.07;2.20;;;;;;;21.13;44.98;101938.03;5042879;28;20406;-62
2023/06/27 04:56:01;;;;;;;7.80;2.35;;;;;;;21.11;45.02;101930.09;5036486;28;20483;-63
2023/06/27 04:58:28;;;;;;;5.65;2.05;;;;;;;21.11;45.19;101934.72;5040424;28;20057;-62
2023/06/27 05:00:56;;;;;;;5.75;2.30;;;;;;;21.11;45.11;101935.56;5042582;28;20084;-63
2023/06/27 05:03:24;;;;;;;7.53;2.45;;;;;;;21.10;45.00;101933.09;5041267;28;20053;-63
2023/06/27 05:05:53;;;;;;;6.85;2.83;;;;;;;21.10;45.00;101924.88;5042321;28;20057;-61
2023/06/27 05:08:21;;;;;;;5.80;2.13;;;;;;;21.11;45.03;101929.28;5031686;28;20061;-62
2023/06/27 05:10:49;;;;;;;8.85;3.03;;;;;;;21.11;44.82;101930.09;5040629;28;20050;-61
2023/06/27 05:13:17;;;;;;;9.15;2.80;;;;;;;21.10;44.89;101928.44;5041102;28;20045;-62
2023/06/27 05:15:44;;;;;;;6.80;2.65;;;;;;;21.11;45.02;101927.34;5040066;28;20072;-62
2023/06/27 05:18:25;;;;;;;6.68;2.10;;;;;;;21.11;44.86;101932.00;5031227;28;20275;-62
2023/06/27 05:20:55;;;;;;;8.15;2.63;;;;;;;21.11;44.82;101932.81;5042604;28;20060;-65
2023/06/27 05:23:23;;;;;;;7.38;3.13;;;;;;;21.03;45.04;101922.41;5039801;28;20056;-64
2023/06/27 05:25:51;;;;;;;9.88;3.08;;;;;;;21.15;44.86;101943.22;5036210;28;20050;-64
2023/06/27 05:28:19;;;;;;;13.40;2.67;;;;;;;21.16;44.96;101939.41;5037888;28;20046;-65
2023/06/27 05:30:47;;;;;;;8.05;1.95;;;;;;;21.16;45.17;101937.50;5038348;28;20052;-62
2023/06/27 05:33:14;;;;;;;7.88;2.45;;;;;;;21.17;45.30;101933.66;5033142;28;20070;-63
2023/06/27 05:35:42;;;;;;;7.18;2.35;;;;;;;21.20;45.34;101929.59;4693602;28;10000639;-61
2023/06/27 05:38:12;;;;;;;7.57;2.67;;;;;;;21.20;45.54;101937.78;5037175;28;20060;-61
2023/06/27 05:40:39;;;;;;;5.55;2.33;;;;;;;21.22;45.53;101932.91;5029142;28;20050;-63
2023/06/27 05:43:08;;;;;;;8.38;2.70;;;;;;;21.24;45.62;101933.47;5042616;28;20057;-62
2023/06/27 05:45:36;;;;;;;9.52;2.25;;;;;;;21.25;45.71;101935.09;5041282;28;20053;-60
2023/06/27 05:48:05;;;;;;;6.60;2.13;;;;;;;21.26;45.96;101934.00;5037122;28;20521;-63
2023/06/27 05:50:33;;;;;;;6.43;2.45;;;;;;;21.27;45.91;101936.47;5029199;28;20077;-60
2023/06/27 05:53:02;;;;;;;7.80;3.00;;;;;;;21.28;46.05;101935.41;5040214;28;20045;-62
2023/06/27 05:55:31;;;;;;;10.18;2.50;;;;;;;21.29;46.11;101923.38;5038475;28;20048;-62
2023/06/27 05:58:00;;;;;;;12.32;2.50;;;;;;;21.31;46.20;101929.41;5040723;28;20065;-62
2023/06/27 06:00:28;;;;;;;9.15;2.78;;;;;;;21.34;46.64;101930.78;5042879;28;20056;-61
2023/06/27 06:02:56;;;;;;;9.45;2.58;;;;;;;21.36;46.45;101934.06;5043892;28;20049;-62
2023/06/27 06:05:23;;;;;;;6.85;2.38;;;;;;;21.37;46.42;101933.78;5035184;28;20105;-61
2023/06/27 06:07:51;;;;;;;7.93;2.58;;;;;;;21.40;46.47;101935.16;5043480;28;20060;-61
2023/06/27 06:10:21;;;;;;;6.57;2.33;;;;;;;21.40;46.49;101930.53;5038820;28;20049;-62
2023/06/27 06:12:51;;;;;;;7.22;2.63;;;;;;;21.43;46.57;101931.91;5038637;28;20049;-62
2023/06/27 06:15:19;;;;;;;8.80;3.20;;;;;;;21.44;46.96;101922.59;5034304;28;20038;-62
2023/06/27 06:17:47;;;;;;;10.95;2.83;;;;;;;21.44;47.03;101931.63;5040097;28;20115;-62
2023/06/27 06:20:15;;;;;;;10.15;2.88;;;;;;;21.47;47.07;101924.81;5036189;28;20079;-61
2023/06/27 06:22:42;;;;;;;12.00;3.10;;;;;;;21.49;47.05;101930.00;5038958;28;20084;-62
2023/06/27 06:25:10;;;;;;;9.65;3.28;;;;;;;21.50;47.20;101931.66;5041488;28;20081;-62
2023/06/27 06:27:38;;;;;;;9.32;2.50;;;;;;;21.50;47.17;101932.47;5040338;28;20116;-61
2023/06/27 06:30:09;;;;;;;8.45;2.60;;;;;;;21.56;47.54;101936.88;5036111;28;20053;-62
2023/06/27 06:32:37;;;;;;;10.25;3.53;;;;;;;21.58;47.18;101936.59;5036571;28;20107;-61
2023/06/27 06:35:06;;;;;;;10.88;3.20;;;;;;;21.59;47.12;101939.06;5032870;28;20049;-62
2023/06/27 06:37:34;;;;;;;8.45;2.70;;;;;;;21.60;47.15;101939.88;5039711;28;20106;-62
2023/06/27 06:40:02;;;;;;;8.20;2.53;;;;;;;21.61;47.20;101936.88;5032287;28;20509;-62
2023/06/27 06:42:30;;;;;;;8.07;2.40;;;;;;;21.63;47.19;101937.44;5037326;28;20057;-62
2023/06/27 06:44:58;;;;;;;7.15;3.20;;;;;;;21.64;47.33;101947.28;5030121;28;20140;-62
2023/06/27 06:47:27;;;;;;;10.38;3.00;;;;;;;21.67;47.43;101949.50;5042071;28;20072;-62
2023/06/27 06:49:55;;;;;;;10.35;2.72;;;;;;;21.69;47.61;101950.03;5038724;28;20633;-63
2023/06/27 06:52:23;;;;;;;6.85;2.20;;;;;;;21.70;47.70;101954.41;5028887;28;20053;-61
2023/06/27 06:54:51;;;;;;;12.85;2.85;;;;;;;21.72;47.60;101954.16;5032924;28;20081;-62
2023/06/27 06:57:19;;;;;;;9.88;2.72;;;;;;;21.73;47.71;101948.41;5036955;28;20088;-62
2023/06/27 06:59:47;;;;;;;6.20;2.35;;;;;;;21.75;47.63;101948.13;5043812;28;20049;-61
2023/06/27 07:02:15;;;;;;;8.52;2.78;;;;;;;21.77;47.66;101949.50;5034681;28;20049;-63
2023/06/27 07:04:44;;;;;;;7.07;2.80;;;;;;;21.79;47.69;101951.97;5027465;28;20081;-62
2023/06/27 07:07:12;;;;;;;10.60;2.72;;;;;;;21.82;47.61;101950.63;5032721;28;20046;-62
2023/06/27 07:09:40;;;;;;;8.68;2.92;;;;;;;21.82;47.61;101947.88;5029392;28;20041;-62
2023/06/27 07:12:08;;;;;;;8.80;2.75;;;;;;;21.84;47.60;101952.00;5034636;28;20057;-62
2023/06/27 07:14:36;;;;;;;7.32;2.65;;;;;;;21.85;47.77;101948.16;5041986;28;20045;-62
2023/06/27 07:17:04;;;;;;;11.32;2.88;;;;;;;21.86;47.80;101951.72;5038902;28;20045;-62
2023/06/27 07:19:32;;;;;;;7.13;2.70;;;;;;;21.88;47.78;101949.53;5031012;28;20099;-62
2023/06/27 07:22:03;;;;;;;11.95;2.75;;;;;;;21.89;47.79;101949.28;5033231;28;20045;-62
2023/06/27 07:24:31;;;;;;;8.25;2.65;;;;;;;21.91;47.62;101960.78;5036554;28;20070;-62
2023/06/27 07:26:59;;;;;;;5.45;2.33;;;;;;;21.93;47.83;101950.38;5035594;28;20041;-62
2023/06/27 07:29:26;;;;;;;6.93;2.30;;;;;;;21.95;47.54;101952.84;5041459;28;20045;-62
2023/06/27 07:31:55;;;;;;;8.82;3.15;;;;;;;21.96;47.62;101955.31;5034866;28;20053;-62
2023/06/27 07:34:22;;;;;;;10.25;3.15;;;;;;;21.99;47.64;101948.47;5040192;28;20049;-61
2023/06/27 07:36:50;;;;;;;7.22;2.22;;;;;;;22.00;47.74;101956.41;5029539;28;20042;-61
2023/06/27 07:39:20;;;;;;;5.97;2.45;;;;;;;22.01;47.44;101940.81;5028679;28;20046;-62
2023/06/27 07:41:48;;;;;;;9.15;2.42;;;;;;;21.99;47.32;101957.50;5036660;28;20049;-63
2023/06/27 07:44:17;;;;;;;6.80;2.55;;;;;;;22.00;47.17;101950.09;5040122;28;20129;-62
2023/06/27 07:46:45;;;;;;;5.38;2.20;;;;;;;21.98;47.06;101947.66;5036387;28;20042;-62
2023/06/27 07:49:14;;;;;;;6.85;1.90;;;;;;;21.97;47.06;101945.19;5027535;28;20054;-62
2023/06/27 07:51:41;;;;;;;8.70;2.30;;;;;;;21.96;46.93;101947.09;5043617;28;20095;-62
2023/06/27 07:54:09;;;;;;;7.22;2.35;;;;;;;21.95;46.83;101950.91;5044755;28;20053;-62
2023/06/27 07:56:38;;;;;;;5.22;1.90;;;;;;;21.94;46.70;101943.81;5035773;28;20104;-62
2023/06/27 07:59:08;;;;;;;7.50;2.30;;;;;;;21.92;46.56;101939.69;5041607;28;20057;-63
2023/06/27 08:01:36;;;;;;;7.85;1.95;;;;;;;21.90;46.34;101950.09;5042389;28;20050;-62
2023/06/27 08:04:04;;;;;;;6.60;1.90;;;;;;;21.89;46.24;101945.72;5029122;28;20380;-63
2023/06/27 08:06:32;;;;;;;9.13;2.15;;;;;;;21.88;46.16;101950.34;5044113;28;20041;-61
2023/06/27 08:09:00;;;;;;;4.40;1.80;;;;;;;21.88;46.35;101946.81;5032653;28;20103;-62
2023/06/27 08:11:28;;;;;;;6.80;1.70;;;;;;;21.88;46.05;101953.09;5042776;28;20046;-62
2023/06/27 08:13:58;;;;;;;5.53;2.50;;;;;;;21.89;45.86;101945.72;5028586;28;20046;-62
2023/06/27 08:16:25;;;;;;;6.22;2.35;;;;;;;21.89;46.00;101949.28;5035907;28;20076;-62
2023/06/27 08:18:53;;;;;;;5.32;1.83;;;;;;;21.89;45.75;101943.78;5037365;28;20083;-62
2023/06/27 08:21:21;;;;;;;7.97;2.25;;;;;;;21.91;46.08;101938.88;5043921;28;20045;-62
2023/06/27 08:23:49;;;;;;;5.10;1.70;;;;;;;21.94;46.05;101942.97;5041894;28;20045;-62
2023/06/27 08:26:17;;;;;;;6.93;1.88;;;;;;;21.92;45.67;101936.97;5024800;28;20085;-61
2023/06/27 08:28:46;;;;;;;3.20;1.75;;;;;;;21.95;45.73;101937.22;5041246;28;20485;-62
2023/06/27 08:31:15;;;;;;;4.63;2.42;;;;;;;21.96;45.56;101949.81;5038148;28;20518;-62
2023/06/27 08:33:43;;;;;;;5.63;1.77;;;;;;;21.96;45.42;101943.53;5028747;28;20052;-61
2023/06/27 08:36:11;;;;;;;6.03;1.70;;;;;;;21.97;45.49;101943.25;5037715;28;20045;-62
2023/06/27 08:38:39;;;;;;;5.55;1.75;;;;;;;21.99;45.78;101945.72;5040658;28;20045;-62
2023/06/27 08:41:10;;;;;;;5.60;1.92;;;;;;;22.00;45.58;101939.97;5038413;28;20080;-62
2023/06/27 08:43:39;;;;;;;5.75;2.03;;;;;;;22.02;45.52;101937.00;5027235;28;20050;-62
2023/06/27 08:46:09;;;;;;;3.47;1.70;;;;;;;22.03;45.53;101931.25;5028316;28;20048;-63
2023/06/27 08:48:41;;;;;;;4.15;1.42;;;;;;;22.06;45.26;101935.38;5034023;28;20124;-62
2023/06/27 08:51:13;;;;;;;4.78;2.00;;;;;;;22.06;45.09;101929.88;5044105;28;20497;-62
2023/06/27 08:53:44;;;;;;;4.38;1.55;;;;;;;22.06;44.88;101922.50;5040843;28;20053;-63
2023/06/27 08:56:15;;;;;;;4.55;1.50;;;;;;;22.07;45.28;101920.59;5046254;28;20053;-62
2023/06/27 08:58:46;;;;;;;3.35;1.77;;;;;;;22.09;45.07;101918.41;5041307;28;20072;-63
2023/06/27 09:01:14;;;;;;;4.82;1.30;;;;;;;22.08;44.55;101917.56;5031297;28;20061;-63
2023/06/27 09:03:43;;;;;;;4.53;1.42;;;;;;;22.08;44.47;101920.31;5039122;28;20045;-62
2023/06/27 09:06:13;;;;;;;3.55;1.40;;;;;;;22.10;44.40;101914.56;5033731;28;20061;-62
2023/06/27 09:08:42;;;;;;;5.93;1.90;;;;;;;22.10;44.72;101911.00;5035812;28;20054;-63
2023/06/27 09:11:10;;;;;;;3.80;1.80;;;;;;;22.11;44.32;101915.38;5037109;28;20065;-62
2023/06/27 09:13:38;;;;;;;6.15;2.17;;;;;;;22.08;44.24;101906.63;5036380;28;20068;-62
2023/06/27 09:16:07;;;;;;;6.95;2.03;;;;;;;22.10;44.02;101913.75;5043026;28;20049;-62
2023/06/27 09:18:36;;;;;;;3.40;1.50;;;;;;;22.07;44.07;101921.41;5043738;28;20077;-62
2023/06/27 09:21:05;;;;;;;6.03;1.88;;;;;;;22.08;43.92;101919.50;5042594;28;20053;-62
2023/06/27 09:23:33;;;;;;;4.95;1.60;;;;;;;22.11;44.21;101927.16;5028442;28;20053;-62
2023/06/27 09:26:09;;;;;;;2.95;1.58;;;;;;;22.11;43.85;101920.84;5034933;28;20119;-62
2023/06/27 09:28:45;;;;;;;4.95;1.95;;;;;;;22.11;43.91;101924.41;5041339;28;20045;-63
2023/06/27 09:31:13;;;;;;;;;;;;;;;22.12;43.57;101923.31;5037655;28;20254;-63
2023/06/27 09:33:43;;;;;;;3.95;1.67;;;;;;;22.11;43.41;101924.41;5035228;28;19929;-62
2023/06/27 09:36:30;;;;;;;2.42;1.27;;;;;;;22.12;43.52;101925.25;5044084;28;20134;-62
2023/06/27 09:39:01;;;;;;;6.25;1.77;;;;;;;22.12;43.45;101919.75;5040428;28;20045;-61
2023/06/27 09:41:41;;;;;;;7.40;2.00;;;;;;;22.11;43.47;101924.41;5040978;28;20048;-62
2023/06/27 09:44:13;;;;;;;6.05;1.90;;;;;;;22.11;43.18;101921.69;5032908;28;20068;-62
2023/06/27 09:46:42;;;;;;;9.80;1.33;;;;;;;22.12;43.19;101930.72;5035574;28;20144;-63
2023/06/27 09:49:10;;;;;;;5.63;1.92;;;;;;;22.11;43.31;101935.38;5033208;28;20077;-63
2023/06/27 09:51:40;;;;;;;4.82;1.85;;;;;;;22.12;43.29;101938.94;5035174;28;20136;-63
2023/06/27 09:54:07;;;;;;;4.38;1.80;;;;;;;22.15;43.77;101936.47;4697176;28;10000573;-61
2023/06/27 09:56:35;;;;;;;5.72;1.67;;;;;;;22.14;43.09;101931.25;5034099;28;20049;-61
2023/06/27 09:59:10;;;;;;;4.35;1.60;;;;;;;22.17;42.78;101952.63;5045038;28;20092;-62
2023/06/27 10:01:57;;;;;;;9.93;2.17;;;;;;;22.16;42.52;101940.84;5045226;28;20117;-61
2023/06/27 10:04:25;;;;;;;2.92;1.85;;;;;;;22.18;42.85;101935.09;5044018;28;20138;-61
2023/06/27 10:06:58;;;;;;;6.45;1.75;;;;;;;22.19;42.39;101939.47;5040296;28;20050;-61
2023/06/27 10:09:26;;;;;;;5.05;1.50;;;;;;;22.19;42.04;101936.75;5042572;28;20104;-61
2023/06/27 10:11:54;;;;;;;7.88;1.48;;;;;;;22.18;42.14;101930.44;5041641;28;20041;-61
2023/06/27 10:14:22;;;;;;;3.90;1.38;;;;;;;22.19;42.17;101937.56;5042257;28;20049;-62
2023/06/27 10:16:52;;;;;;;4.55;1.30;;;;;;;22.19;41.80;101944.97;5035710;28;20304;-61
2023/06/27 10:19:20;;;;;;;3.75;1.30;;;;;;;22.18;41.58;101929.63;5045129;28;20053;-61
2023/06/27 10:21:48;;;;;;;3.08;1.30;;;;;;;22.20;41.92;101931.00;5040011;28;20080;-62
2023/06/27 10:24:18;;;;;;;3.70;1.30;;;;;;;22.22;41.85;101944.41;5038139;28;20057;-63
2023/06/27 10:26:51;;;;;;;2.78;1.63;;;;;;;22.20;41.74;101935.66;5032818;28;20049;-63
2023/06/27 10:29:31;;;;;;;3.08;1.23;;;;;;;22.24;41.73;101934.84;5033748;28;20045;-63
2023/06/27 10:31:59;;;;;;;3.97;1.58;;;;;;;22.29;41.90;101937.56;5035118;28;20049;-61
2023/06/27 10:34:28;;;;;;;4.78;1.73;;;;;;;22.30;41.64;101935.66;5038319;28;20049;-62
2023/06/27 10:37:00;;;;;;;5.32;1.10;;;;;;;22.31;41.63;101929.91;5042697;28;20144;-69
2023/06/27 10:39:31;;;;;;;3.17;1.33;;;;;;;22.35;41.16;101943.88;5042318;28;20148;-61
2023/06/27 10:42:04;;;;;;;4.70;1.52;;;;;;;22.36;41.28;101938.13;5044202;28;20045;-63
2023/06/27 10:44:32;;;;;;;3.03;1.10;;;;;;;22.36;41.35;101929.91;5030394;28;20049;-62
2023/06/27 10:47:27;;;;;;;9.50;2.65;;;;;;;22.38;40.79;101932.38;5036939;28;20113;-62
2023/06/27 10:50:12;;;;;;;1.55;1.10;;;;;;;22.40;40.42;101927.44;5037591;28;20046;-62
2023/06/27 10:52:42;;;;;;;3.40;1.40;;;;;;;22.41;40.39;101931.81;5033454;28;20415;-62
2023/06/27 10:55:27;;;;;;;4.13;1.35;;;;;;;22.40;39.75;101924.69;5031406;28;20053;-62
2023/06/27 10:58:09;;;;;;;2.22;1.25;;;;;;;22.42;39.34;101927.97;5027665;28;20061;-61
2023/06/27 11:00:42;;;;;;;3.33;1.40;;;;;;;22.44;39.86;101917.56;5027038;28;20046;-62
2023/06/27 11:03:10;;;;;;;2.58;1.30;;;;;;;22.47;40.21;101924.41;5031143;28;20045;-62
2023/06/27 11:05:49;;;;;;;3.92;1.50;;;;;;;22.47;39.25;101927.97;5037583;28;20097;-61
2023/06/27 11:08:19;;;;;;;3.15;1.10;;;;;;;22.51;39.80;101928.25;5035866;28;20073;-62
2023/06/27 11:11:02;;;;;;;2.80;0.88;;;;;;;22.59;40.85;101923.00;5032123;28;20161;-61
2023/06/27 11:13:31;;;;;;;4.15;0.98;;;;;;;22.60;39.78;101910.13;5031220;28;20050;-62
2023/06/27 11:15:58;;;;;;;3.10;1.00;;;;;;;22.65;39.59;101932.03;5033102;28;20042;-61
2023/06/27 11:18:27;;;;;;;3.35;1.35;;;;;;;22.68;39.71;101926.81;5029429;28;20232;-62
2023/06/27 11:20:56;;;;;;;4.70;1.27;;;;;;;22.66;39.08;101929.03;5031577;28;20049;-62
2023/06/27 11:23:25;;;;;;;5.40;1.30;;;;;;;22.66;38.91;101922.72;5032799;28;20041;-62
2023/06/27 11:25:55;;;;;;;4.82;1.20;;;;;;;22.67;39.58;101927.91;5039278;28;20053;-62
2023/06/27 11:28:24;;;;;;;1.95;1.10;;;;;;;22.68;39.05;101923.25;5031685;28;20046;-62
2023/06/27 11:30:59;;;;;;;3.22;1.05;;;;;;;22.67;39.05;101927.91;5033495;28;20112;-62
2023/06/27 11:33:27;;;;;;;4.32;1.10;;;;;;;22.71;39.45;101929.00;5035144;28;20041;-62